createdAt,value
2022-11-12T00:01:02.731Z,13.60
2022-11-12T00:03:36.732Z,13.15
2022-11-12T00:06:03.243Z,12.93
2022-11-12T00:08:30.052Z,14.27
2022-11-12T00:10:56.653Z,13.65
2022-11-12T00:13:23.123Z,12.43
2022-11-12T00:15:49.527Z,15.52
2022-11-12T00:18:15.922Z,14.10
2022-11-12T00:20:42.444Z,15.30
2022-11-12T00:23:08.814Z,15.65
2022-11-12T00:25:35.328Z,15.73
2022-11-12T00:28:03.556Z,13.88
2022-11-12T00:30:30.468Z,15.85
2022-11-12T00:32:56.905Z,15.00
2022-11-12T00:35:23.270Z,14.80
2022-11-12T00:37:54.795Z,14.10
2022-11-12T00:40:21.463Z,14.90
2022-11-12T00:42:47.863Z,15.05
2022-11-12T00:45:14.249Z,15.05
2022-11-12T00:47:40.604Z,15.93
2022-11-12T00:50:07.627Z,15.25
2022-11-12T00:52:34.006Z,15.55
2022-11-12T00:55:00.364Z,15.10
2022-11-12T00:57:26.763Z,15.05
2022-11-12T00:59:53.128Z,15.18
2022-11-12T01:02:20.429Z,14.02
2022-11-12T01:04:46.790Z,13.90
2022-11-12T01:07:37.639Z,13.68
2022-11-12T01:10:04.918Z,13.07
2022-11-12T01:12:31.935Z,13.45
2022-11-12T01:14:58.346Z,13.82
2022-11-12T01:17:24.713Z,13.40
2022-11-12T01:19:51.085Z,13.30
2022-11-12T01:22:17.660Z,14.15
2022-11-12T01:24:44.099Z,12.40
2022-11-12T01:27:10.460Z,12.93
2022-11-12T01:29:36.851Z,13.02
2022-11-12T01:32:03.231Z,13.07
2022-11-12T01:34:29.684Z,14.77
2022-11-12T01:36:56.121Z,13.05
2022-11-12T01:39:22.591Z,13.25
2022-11-12T01:41:48.952Z,13.73
2022-11-12T01:44:19.642Z,13.70
2022-11-12T01:47:00.708Z,14.38
2022-11-12T01:49:32.452Z,14.30
2022-11-12T01:52:02.202Z,14.88
2022-11-12T01:54:29.156Z,13.10
2022-11-12T01:56:57.270Z,15.32
2022-11-12T01:59:29.675Z,13.48
2022-11-12T02:01:56.159Z,13.93
2022-11-12T02:04:23.024Z,14.60
2022-11-12T02:06:51.056Z,14.77
2022-11-12T02:09:18.451Z,14.18
2022-11-12T02:11:48.215Z,13.85
2022-11-12T02:14:14.775Z,14.95
2022-11-12T02:16:45.028Z,15.70
2022-11-12T02:19:15.378Z,13.98
2022-11-12T02:21:42.224Z,14.02
2022-11-12T02:24:11.538Z,14.48
2022-11-12T02:26:42.283Z,14.10
2022-11-12T02:29:08.671Z,14.45
2022-11-12T02:31:35.406Z,15.20
2022-11-12T02:34:01.788Z,14.90
2022-11-12T02:36:28.955Z,14.48
2022-11-12T02:38:55.351Z,14.52
2022-11-12T02:41:21.761Z,14.00
2022-11-12T02:43:48.129Z,13.40
2022-11-12T02:46:14.871Z,13.32
2022-11-12T02:48:41.255Z,14.40
2022-11-12T02:51:07.646Z,14.13
2022-11-12T02:53:34.243Z,14.70
2022-11-12T02:56:01.153Z,13.70
2022-11-12T02:58:28.661Z,14.20
2022-11-12T03:00:57.141Z,15.73
2022-11-12T03:03:23.666Z,14.98
2022-11-12T03:05:58.133Z,14.77
2022-11-12T03:08:25.503Z,14.00
2022-11-12T03:10:52.883Z,14.50
2022-11-12T03:13:19.874Z,15.70
2022-11-12T03:15:46.328Z,16.30
2022-11-12T03:18:12.782Z,15.63
2022-11-12T03:20:39.161Z,14.90
2022-11-12T03:23:08.058Z,16.08
2022-11-12T03:25:35.028Z,14.73
2022-11-12T03:28:06.862Z,15.68
2022-11-12T03:30:35.360Z,15.90
2022-11-12T03:33:01.927Z,15.15
2022-11-12T03:35:28.498Z,15.63
2022-11-12T03:37:54.876Z,15.70
2022-11-12T03:40:21.441Z,15.43
2022-11-12T03:42:48.927Z,16.48
2022-11-12T03:45:19.514Z,15.88
2022-11-12T03:47:47.821Z,15.68
2022-11-12T03:50:15.181Z,16.30
2022-11-12T03:52:47.025Z,16.52
2022-11-12T03:55:14.719Z,16.05
2022-11-12T03:57:41.104Z,15.40
2022-11-12T04:00:09.050Z,15.13
2022-11-12T04:02:35.402Z,16.55
2022-11-12T04:05:20.744Z,17.33
2022-11-12T04:08:16.095Z,18.10
2022-11-12T04:10:42.512Z,16.55
2022-11-12T04:13:27.390Z,16.65
2022-11-12T04:16:20.943Z,17.17
2022-11-12T04:19:08.310Z,16.95
2022-11-12T04:21:55.896Z,16.95
2022-11-12T04:25:08.346Z,16.30
2022-11-12T04:27:35.157Z,16.17
2022-11-12T04:30:16.801Z,17.27
2022-11-12T04:32:56.769Z,18.75
2022-11-12T04:35:24.731Z,17.88
2022-11-12T04:37:51.369Z,17.25
2022-11-12T04:40:37.563Z,18.27
2022-11-12T04:43:24.248Z,17.40
2022-11-12T04:45:54.832Z,18.00
2022-11-12T04:48:22.771Z,19.58
2022-11-12T04:51:25.511Z,20.17
2022-11-12T04:53:52.087Z,18.42
2022-11-12T04:56:18.483Z,19.80
2022-11-12T04:58:44.862Z,20.58
2022-11-12T05:01:11.252Z,21.85
2022-11-12T05:03:37.633Z,22.73
2022-11-12T05:06:25.357Z,19.25
2022-11-12T05:08:51.730Z,20.23
2022-11-12T05:11:18.138Z,18.10
2022-11-12T05:13:44.493Z,18.00
2022-11-12T05:16:10.859Z,17.92
2022-11-12T05:18:37.430Z,18.73
2022-11-12T05:21:23.924Z,17.80
2022-11-12T05:23:50.287Z,19.15
2022-11-12T05:26:16.673Z,17.75
2022-11-12T05:28:43.062Z,18.42
2022-11-12T05:31:09.430Z,20.58
2022-11-12T05:33:35.799Z,17.40
2022-11-12T05:36:02.159Z,19.23
2022-11-12T05:38:29.000Z,20.15
2022-11-12T05:40:55.607Z,17.30
2022-11-12T05:43:21.961Z,19.35
2022-11-12T05:45:48.306Z,16.60
2022-11-12T05:48:14.684Z,16.13
2022-11-12T05:51:06.307Z,19.38
2022-11-12T05:53:27.441Z,17.70
2022-11-12T05:55:53.792Z,17.80
2022-11-12T05:58:20.210Z,18.05
2022-11-12T06:00:47.839Z,16.30
2022-11-12T06:03:14.200Z,19.02
2022-11-12T06:05:40.560Z,15.82
2022-11-12T06:08:07.259Z,15.38
2022-11-12T06:10:33.826Z,16.90
2022-11-12T06:13:00.369Z,15.63
2022-11-12T06:15:27.024Z,15.55
2022-11-12T06:17:54.199Z,15.68
2022-11-12T06:20:21.767Z,15.40
2022-11-12T06:22:48.688Z,16.73
2022-11-12T06:25:15.084Z,15.68
2022-11-12T06:27:41.473Z,16.45
2022-11-12T06:30:08.518Z,14.38
2022-11-12T06:32:34.950Z,15.20
2022-11-12T06:35:01.379Z,15.68
2022-11-12T06:37:27.764Z,13.05
2022-11-12T06:39:54.136Z,15.18
2022-11-12T06:42:20.515Z,14.38
2022-11-12T06:44:46.898Z,15.35
2022-11-12T06:47:13.575Z,16.15
2022-11-12T06:49:41.463Z,15.40
2022-11-12T06:52:10.045Z,15.32
2022-11-12T06:54:40.055Z,15.73
2022-11-12T06:57:06.523Z,16.27
2022-11-12T06:59:32.893Z,14.77
2022-11-12T07:01:59.395Z,15.85
2022-11-12T07:04:25.912Z,16.67
2022-11-12T07:06:52.332Z,15.25
2022-11-12T07:09:18.751Z,16.02
2022-11-12T07:11:45.123Z,15.48
2022-11-12T07:14:11.496Z,14.65
2022-11-12T07:16:37.917Z,15.68
2022-11-12T07:19:04.292Z,14.93
2022-11-12T07:21:30.660Z,15.02
2022-11-12T07:23:57.024Z,15.50
2022-11-12T07:26:25.572Z,15.48
2022-11-12T07:28:52.449Z,16.52
2022-11-12T07:31:20.036Z,14.30
2022-11-12T07:33:48.781Z,16.83
2022-11-12T07:36:17.420Z,16.35
2022-11-12T07:38:44.423Z,15.27
2022-11-12T07:41:15.430Z,14.95
2022-11-12T07:43:44.662Z,14.45
2022-11-12T07:46:15.741Z,15.77
2022-11-12T07:48:42.748Z,15.07
2022-11-12T07:51:13.880Z,14.60
2022-11-12T07:53:41.218Z,14.48
2022-11-12T07:56:07.854Z,15.43
2022-11-12T07:58:34.607Z,15.23
2022-11-12T08:01:11.098Z,17.67
2022-11-12T08:03:37.610Z,15.55
2022-11-12T08:06:04.479Z,14.80
2022-11-12T08:08:30.846Z,15.02
2022-11-12T08:10:58.373Z,16.33
2022-11-12T08:13:24.994Z,16.63
2022-11-12T08:15:52.523Z,17.48
2022-11-12T08:18:18.987Z,16.90
2022-11-12T08:20:45.340Z,17.05
2022-11-12T08:23:11.706Z,17.73
2022-11-12T08:25:38.071Z,17.23
2022-11-12T08:28:04.673Z,17.65
2022-11-12T08:30:31.023Z,18.23
2022-11-12T08:32:58.886Z,17.02
2022-11-12T08:35:29.317Z,18.58
2022-11-12T08:38:10.465Z,18.17
2022-11-12T08:40:37.179Z,16.80
2022-11-12T08:43:06.288Z,17.27
2022-11-12T08:48:02.460Z,15.65
2022-11-12T08:50:29.447Z,16.58
2022-11-12T08:53:00.987Z,17.52
2022-11-12T08:55:28.172Z,16.45
2022-11-12T08:57:54.818Z,14.82
2022-11-12T09:00:21.332Z,12.75
2022-11-12T09:02:47.696Z,13.35
2022-11-12T09:05:14.055Z,11.35
2022-11-12T09:07:49.826Z,11.13
2022-11-12T09:10:17.195Z,11.38
2022-11-12T09:12:43.579Z,12.00
2022-11-12T09:15:36.432Z,12.07
2022-11-12T09:18:01.767Z,12.95
2022-11-12T09:20:29.277Z,12.02
2022-11-12T09:23:05.142Z,12.65
2022-11-12T09:25:31.536Z,11.90
2022-11-12T09:28:06.315Z,12.32
2022-11-12T09:30:32.689Z,11.63
2022-11-12T09:32:59.104Z,11.00
2022-11-12T09:35:25.488Z,11.60
2022-11-12T09:37:51.876Z,11.10
2022-11-12T09:40:19.189Z,11.23
2022-11-12T09:42:48.063Z,10.77
2022-11-12T09:45:22.684Z,10.68
2022-11-12T09:47:54.241Z,10.02
2022-11-12T09:51:00.209Z,10.43
2022-11-12T09:53:41.551Z,9.95
2022-11-12T09:56:12.839Z,10.15
2022-11-12T09:58:39.229Z,9.50
2022-11-12T10:01:22.576Z,10.35
2022-11-12T10:04:06.334Z,8.98
2022-11-12T10:06:41.781Z,9.73
2022-11-12T10:09:16.668Z,9.70
2022-11-12T10:12:15.877Z,9.27
2022-11-12T10:15:23.961Z,9.27
2022-11-12T10:18:01.479Z,8.88
2022-11-12T10:20:48.804Z,8.80
2022-11-12T10:23:21.222Z,7.65
2022-11-12T10:25:49.469Z,8.63
2022-11-12T10:28:25.568Z,8.77
2022-11-12T10:30:55.702Z,9.60
2022-11-12T10:33:22.075Z,9.57
2022-11-12T10:35:48.714Z,8.85
2022-11-12T10:38:18.848Z,8.57
2022-11-12T10:40:45.245Z,7.60
2022-11-12T10:43:17.585Z,8.00
2022-11-12T10:45:45.393Z,7.85
2022-11-12T10:48:28.766Z,8.25
2022-11-12T10:50:55.609Z,8.00
2022-11-12T10:53:48.379Z,7.47
2022-11-12T10:56:29.684Z,6.90
2022-11-12T10:59:11.252Z,7.63
2022-11-12T11:01:41.619Z,7.00
2022-11-12T11:04:28.011Z,7.97
2022-11-12T11:06:59.100Z,8.65
2022-11-12T11:09:26.712Z,8.82
2022-11-12T11:11:54.045Z,8.23
2022-11-12T11:14:23.482Z,8.52
2022-11-12T11:16:51.354Z,8.50
2022-11-12T11:19:17.984Z,7.95
2022-11-12T11:21:55.034Z,7.68
2022-11-12T11:24:30.461Z,7.43
2022-11-12T11:27:34.302Z,7.20
2022-11-12T11:30:19.698Z,5.88
2022-11-12T11:33:00.938Z,5.65
2022-11-12T11:35:31.208Z,5.60
2022-11-12T11:38:35.745Z,5.82
2022-11-12T11:41:11.241Z,5.50
2022-11-12T11:43:48.144Z,5.65
2022-11-12T11:46:22.032Z,5.78
2022-11-12T11:48:59.181Z,6.07
2022-11-12T11:51:37.447Z,6.07
2022-11-12T11:54:28.559Z,5.80
2022-11-12T11:56:58.778Z,5.65
2022-11-12T11:59:39.018Z,6.20
2022-11-12T12:02:14.368Z,5.50
2022-11-12T12:04:52.024Z,5.82
2022-11-12T12:07:24.253Z,5.45
2022-11-12T12:10:14.215Z,5.35
2022-11-12T12:13:00.967Z,5.90
2022-11-12T12:15:45.769Z,5.93
2022-11-12T12:18:12.031Z,5.35
2022-11-12T12:21:09.463Z,4.93
2022-11-12T12:24:03.560Z,4.80
2022-11-12T12:26:37.724Z,4.22
2022-11-12T12:29:45.483Z,4.50
2022-11-12T12:32:24.004Z,4.05
2022-11-12T12:35:21.636Z,4.18
2022-11-12T12:38:26.069Z,3.63
2022-11-12T12:41:01.796Z,5.35
2022-11-12T12:43:43.518Z,6.05
2022-11-12T12:46:13.202Z,6.13
2022-11-12T12:51:09.712Z,6.50
2022-11-12T12:53:36.467Z,6.20
2022-11-12T12:56:29.034Z,5.97
2022-11-12T12:58:55.456Z,5.53
2022-11-12T13:01:22.060Z,5.20
2022-11-12T13:03:54.487Z,6.05
2022-11-12T13:06:23.924Z,5.38
2022-11-12T13:09:09.154Z,5.15
2022-11-12T13:12:00.259Z,5.15
2022-11-12T13:14:35.483Z,4.88
2022-11-12T13:17:11.806Z,5.47
2022-11-12T13:20:08.059Z,6.03
2022-11-12T13:22:49.981Z,5.85
2022-11-12T13:25:19.228Z,6.03
2022-11-12T13:27:45.550Z,6.25
2022-11-12T13:30:18.015Z,6.50
2022-11-12T13:32:54.808Z,6.18
2022-11-12T13:35:34.965Z,5.80
2022-11-12T13:38:15.650Z,6.10
2022-11-12T13:40:58.450Z,6.47
2022-11-12T13:43:31.587Z,6.53
2022-11-12T13:46:07.102Z,6.85
2022-11-12T13:48:35.900Z,5.70
2022-11-12T13:51:04.705Z,5.72
2022-11-12T13:53:32.242Z,6.40
2022-11-12T13:55:59.702Z,6.00
2022-11-12T13:58:32.395Z,6.20
2022-11-12T14:01:01.021Z,5.80
2022-11-12T14:03:33.189Z,5.57
2022-11-12T14:06:06.123Z,6.18
2022-11-12T14:08:45.893Z,5.85
2022-11-12T14:11:57.040Z,5.80
2022-11-12T14:14:39.765Z,6.80
2022-11-12T14:17:24.938Z,8.05
2022-11-12T14:20:13.685Z,8.30
2022-11-12T14:22:42.015Z,8.63
2022-11-12T14:25:23.856Z,8.30
2022-11-12T14:27:55.214Z,8.02
2022-11-12T14:30:21.893Z,8.52
2022-11-12T14:32:53.882Z,8.18
2022-11-12T14:35:23.255Z,7.68
2022-11-12T14:38:05.107Z,8.25
2022-11-12T14:40:34.136Z,8.43
2022-11-12T14:43:00.516Z,8.52
2022-11-12T14:45:31.204Z,8.20
2022-11-12T14:48:00.877Z,9.57
2022-11-12T14:50:29.516Z,9.32
2022-11-12T14:53:05.006Z,8.73
2022-11-12T14:55:33.826Z,8.77
2022-11-12T14:58:00.827Z,8.40
2022-11-12T15:00:30.144Z,9.23
2022-11-12T15:02:59.870Z,8.55
2022-11-12T15:05:29.268Z,9.20
2022-11-12T15:08:05.546Z,9.05
2022-11-12T15:10:41.941Z,9.00
2022-11-12T15:13:16.318Z,9.70
2022-11-12T15:16:22.571Z,10.77
2022-11-12T15:19:22.028Z,10.65
2022-11-12T15:22:01.161Z,10.23
2022-11-12T15:24:32.473Z,11.43
2022-11-12T15:27:00.854Z,11.05
2022-11-12T15:29:30.379Z,10.90
2022-11-12T15:31:59.665Z,10.82
2022-11-12T15:34:32.152Z,10.75
2022-11-12T15:37:02.036Z,11.80
2022-11-12T15:39:29.306Z,11.27
2022-11-12T15:42:29.170Z,13.07
2022-11-12T15:45:04.483Z,12.55
2022-11-12T15:47:31.047Z,12.63
2022-11-12T15:50:01.341Z,12.48
2022-11-12T15:52:27.940Z,12.48
2022-11-12T15:54:54.550Z,12.57
2022-11-12T15:57:27.122Z,12.43
2022-11-12T16:00:08.692Z,13.95
2022-11-12T16:02:35.362Z,14.63
2022-11-12T16:05:01.892Z,16.13
2022-11-12T16:07:28.268Z,15.65
2022-11-12T16:09:54.721Z,18.40
2022-11-12T16:12:21.134Z,17.85
2022-11-12T16:14:47.619Z,17.08
2022-11-12T16:17:15.634Z,19.10
2022-11-12T16:19:42.184Z,18.75
2022-11-12T16:22:12.583Z,17.77
2022-11-12T16:24:42.629Z,16.85
2022-11-12T16:27:13.943Z,20.10
2022-11-12T16:29:40.513Z,20.20
2022-11-12T16:32:07.251Z,21.25
2022-11-12T16:34:33.614Z,21.42
2022-11-12T16:37:00.004Z,22.70
2022-11-12T16:39:26.419Z,20.25
2022-11-12T16:41:53.573Z,20.27
2022-11-12T16:44:19.949Z,23.55
2022-11-12T16:46:46.310Z,22.98
2022-11-12T16:49:14.077Z,24.65
2022-11-12T16:51:40.685Z,25.15
2022-11-12T16:54:07.378Z,25.70
2022-11-12T16:56:34.422Z,24.50
2022-11-12T16:59:00.782Z,22.80
2022-11-12T17:01:31.835Z,23.15
2022-11-12T17:03:58.735Z,23.38
2022-11-12T17:06:39.413Z,24.02
2022-11-12T17:09:07.860Z,23.50
2022-11-12T17:11:35.071Z,22.50
2022-11-12T17:14:02.339Z,22.20
2022-11-12T17:16:29.006Z,22.92
2022-11-12T17:18:56.803Z,21.63
2022-11-12T17:21:23.476Z,21.13
2022-11-12T17:23:50.269Z,21.70
2022-11-12T17:26:19.407Z,21.25
2022-11-12T17:28:46.394Z,20.38
2022-11-12T17:31:21.219Z,20.15
2022-11-12T17:33:49.783Z,20.58
2022-11-12T17:36:24.189Z,20.02
2022-11-12T17:38:54.787Z,21.10
2022-11-12T17:41:21.172Z,20.90
2022-11-12T17:43:47.740Z,21.88
2022-11-12T17:46:14.796Z,20.98
2022-11-12T17:48:41.337Z,20.25
2022-11-12T17:51:11.150Z,21.08
2022-11-12T17:53:38.168Z,19.65
2022-11-12T17:56:05.589Z,21.20
2022-11-12T17:58:32.379Z,19.90
2022-11-12T18:01:08.256Z,19.58
2022-11-12T18:03:38.752Z,19.73
2022-11-12T18:06:05.203Z,20.45
2022-11-12T18:08:31.632Z,21.63
2022-11-12T18:10:58.021Z,21.10
2022-11-12T18:13:26.734Z,21.60
2022-11-12T18:15:53.441Z,21.77
2022-11-12T18:18:19.842Z,21.35
2022-11-12T18:20:46.209Z,22.25
2022-11-12T18:23:12.595Z,21.45
2022-11-12T18:25:38.984Z,22.25
2022-11-12T18:28:06.649Z,22.70
2022-11-12T18:30:34.190Z,22.10
2022-11-12T18:33:00.761Z,21.17
2022-11-12T18:35:29.830Z,22.65
2022-11-12T18:37:56.532Z,20.17
2022-11-12T18:40:23.739Z,22.85
2022-11-12T18:42:50.103Z,23.42
2022-11-12T18:45:16.665Z,22.63
2022-11-12T18:47:43.039Z,22.65
2022-11-12T18:50:09.923Z,19.98
2022-11-12T18:52:36.644Z,22.38
2022-11-12T18:55:03.883Z,21.83
2022-11-12T18:57:30.255Z,23.25
2022-11-12T18:59:56.659Z,20.85
2022-11-12T19:02:23.038Z,21.73
2022-11-12T19:04:49.402Z,21.13
2022-11-12T19:07:15.805Z,23.20
2022-11-12T19:09:42.180Z,23.48
2022-11-12T19:12:08.597Z,27.20
2022-11-12T19:14:34.957Z,25.63
2022-11-12T19:17:01.316Z,32.22
2022-11-12T19:19:27.765Z,25.73
2022-11-12T19:21:54.230Z,25.65
2022-11-12T19:24:20.648Z,28.13
2022-11-12T19:26:47.014Z,26.05
2022-11-12T19:29:13.667Z,27.73
2022-11-12T19:31:40.807Z,25.42
2022-11-12T19:34:07.209Z,26.90
2022-11-12T19:36:33.614Z,26.50
2022-11-12T19:39:02.363Z,26.05
2022-11-12T19:41:28.840Z,28.23
2022-11-12T19:43:55.767Z,27.90
2022-11-12T19:46:22.147Z,30.35
2022-11-12T19:48:48.801Z,30.70
2022-11-12T19:51:15.164Z,29.55
2022-11-12T19:53:44.537Z,27.70
2022-11-12T19:56:13.470Z,29.83
2022-11-12T19:58:40.377Z,31.08
2022-11-12T20:01:09.037Z,29.73
2022-11-12T20:03:36.429Z,29.83
2022-11-12T20:06:07.726Z,30.35
2022-11-12T20:08:34.451Z,29.02
2022-11-12T20:11:01.188Z,27.65
2022-11-12T20:13:28.092Z,27.10
2022-11-12T20:15:54.652Z,28.63
2022-11-12T20:18:21.421Z,28.52
2022-11-12T20:20:50.870Z,26.88
2022-11-12T20:23:17.362Z,25.45
2022-11-12T20:25:43.776Z,25.45
2022-11-12T20:28:10.751Z,23.80
2022-11-12T20:30:37.664Z,26.55
2022-11-12T20:33:04.116Z,23.95
2022-11-12T20:35:30.677Z,22.73
2022-11-12T20:37:57.061Z,28.80
2022-11-12T20:40:23.429Z,23.92
2022-11-12T20:42:51.811Z,26.95
2022-11-12T20:45:18.176Z,27.05
2022-11-12T20:47:44.539Z,27.25
2022-11-12T20:50:10.925Z,26.83
2022-11-12T20:52:37.314Z,27.38
2022-11-12T20:55:03.852Z,27.60
2022-11-12T20:57:30.230Z,28.48
2022-11-12T20:59:56.590Z,29.60
2022-11-12T21:02:22.962Z,27.80
2022-11-12T21:04:49.438Z,29.73
2022-11-12T21:07:15.880Z,27.60
2022-11-12T21:09:43.052Z,28.60
2022-11-12T21:12:09.403Z,31.73
2022-11-12T21:14:35.776Z,31.90
2022-11-12T21:17:02.158Z,29.17
2022-11-12T21:19:28.527Z,26.80
2022-11-12T21:21:54.894Z,28.48
2022-11-12T21:24:21.257Z,29.33
2022-11-12T21:26:50.921Z,30.30
2022-11-12T21:29:19.088Z,29.42
2022-11-12T21:31:45.608Z,27.33
2022-11-12T21:34:11.986Z,29.58
2022-11-12T21:36:38.449Z,27.60
2022-11-12T21:39:05.125Z,29.85
2022-11-12T21:41:32.080Z,28.35
2022-11-12T21:43:58.859Z,27.90
2022-11-12T21:46:27.572Z,28.58
2022-11-12T21:48:55.513Z,29.45
2022-11-12T21:51:30.792Z,29.08
2022-11-12T21:53:59.411Z,31.83
2022-11-12T21:56:26.705Z,29.20
2022-11-12T21:58:54.274Z,31.15
2022-11-12T22:01:25.038Z,31.73
2022-11-12T22:03:53.102Z,29.52
2022-11-12T22:06:20.590Z,29.77
2022-11-12T22:08:47.104Z,31.85
2022-11-12T22:11:15.370Z,28.90
2022-11-12T22:13:42.507Z,28.17
2022-11-12T22:16:13.276Z,29.40
2022-11-12T22:18:39.936Z,30.90
2022-11-12T22:21:09.505Z,29.88
2022-11-12T22:23:36.068Z,28.23
2022-11-12T22:26:07.572Z,27.58
2022-11-12T22:28:34.401Z,26.50
2022-11-12T22:31:11.829Z,26.38
2022-11-12T22:33:38.604Z,24.23
2022-11-12T22:36:10.293Z,25.58
2022-11-12T22:38:38.704Z,26.83
2022-11-12T22:41:07.430Z,26.15
2022-11-12T22:43:34.122Z,26.42
2022-11-12T22:46:07.162Z,32.70
2022-11-12T22:48:34.011Z,32.60
2022-11-12T22:51:01.542Z,31.10
2022-11-12T22:53:28.778Z,33.58
2022-11-12T22:55:55.359Z,29.60
2022-11-12T22:58:22.131Z,30.52
2022-11-12T23:00:48.577Z,33.22
2022-11-12T23:03:14.922Z,32.47
2022-11-12T23:05:42.443Z,34.35
2022-11-12T23:08:08.961Z,33.17
2022-11-12T23:10:35.334Z,32.88
2022-11-12T23:13:01.688Z,27.17
2022-11-12T23:15:29.110Z,27.02
2022-11-12T23:17:55.481Z,27.48
2022-11-12T23:20:21.868Z,25.88
2022-11-12T23:22:48.229Z,26.05
2022-11-12T23:25:14.654Z,28.02
2022-11-12T23:27:41.416Z,30.13
2022-11-12T23:30:08.278Z,27.02
2022-11-12T23:32:34.682Z,29.42
2022-11-12T23:35:01.064Z,26.23
2022-11-12T23:37:27.435Z,27.98
2022-11-12T23:39:53.787Z,28.77
2022-11-12T23:42:20.160Z,27.77
2022-11-12T23:44:46.527Z,27.40
2022-11-12T23:47:12.894Z,29.02
2022-11-12T23:49:39.307Z,27.35
2022-11-12T23:52:05.698Z,30.90
2022-11-12T23:54:32.066Z,31.55
2022-11-12T23:56:58.498Z,32.58
2022-11-12T23:59:24.898Z,30.27
